createdAt,value
2018-01-01T00:00:53.678Z,70.37
2018-01-01T00:03:20.648Z,72.28
2018-01-01T00:05:47.560Z,76.73
2018-01-01T00:08:15.252Z,64.00
2018-01-01T00:10:42.194Z,52.37
2018-01-01T00:13:09.131Z,40.93
2018-01-01T00:15:36.040Z,36.90
2018-01-01T00:18:04.750Z,24.43
2018-01-01T00:20:31.663Z,25.77
2018-01-01T00:22:58.612Z,22.63
2018-01-01T00:25:26.307Z,23.20
2018-01-01T00:27:53.240Z,20.98
2018-01-01T00:30:20.164Z,20.37
2018-01-01T00:32:47.869Z,23.75
2018-01-01T00:35:14.784Z,24.35
2018-01-01T00:37:42.480Z,26.65
2018-01-01T00:40:09.412Z,20.40
2018-01-01T00:42:36.359Z,27.75
2018-01-01T00:45:03.267Z,24.23
2018-01-01T00:47:30.954Z,22.30
2018-01-01T00:49:57.887Z,20.90
2018-01-01T00:52:25.592Z,19.83
2018-01-01T00:54:52.511Z,20.02
2018-01-01T00:57:19.422Z,16.73
2018-01-01T00:59:46.347Z,15.05
2018-01-01T01:02:13.259Z,16.33
2018-01-01T01:04:40.184Z,17.02
2018-01-01T01:07:07.095Z,18.30
2018-01-01T01:09:34.037Z,19.77
2018-01-01T01:12:00.957Z,15.70
2018-01-01T01:14:27.883Z,58.78
2018-01-01T01:16:54.795Z,16.65
2018-01-01T01:19:21.740Z,15.48
2018-01-01T01:21:49.424Z,14.87
2018-01-01T01:24:16.368Z,13.73
2018-01-01T01:26:43.288Z,14.63
2018-01-01T01:29:12.163Z,12.55
2018-01-01T01:31:39.855Z,13.93
2018-01-01T01:34:06.771Z,13.52
2018-01-01T01:36:34.560Z,12.88
2018-01-01T01:39:01.474Z,13.10
2018-01-01T01:41:28.408Z,11.88
2018-01-01T01:43:55.314Z,11.10
2018-01-01T01:46:22.247Z,10.15
2018-01-01T01:48:49.162Z,10.02
2018-01-01T01:51:16.839Z,10.40
2018-01-01T01:53:43.766Z,10.40
2018-01-01T01:56:11.435Z,9.32
2018-01-01T01:58:39.125Z,11.10
2018-01-01T02:01:06.047Z,10.32
2018-01-01T02:03:33.743Z,9.98
2018-01-01T02:06:00.648Z,9.20
2018-01-01T02:08:28.340Z,9.65
2018-01-01T02:10:56.109Z,8.48
2018-01-01T02:13:23.058Z,7.95
2018-01-01T02:15:49.976Z,7.70
2018-01-01T02:18:16.904Z,8.50
2018-01-01T02:20:44.599Z,7.82
2018-01-01T02:23:11.509Z,7.93
2018-01-01T02:25:39.212Z,7.35
2018-01-01T02:28:06.111Z,8.15
2018-01-01T02:30:33.805Z,6.68
2018-01-01T02:33:00.720Z,8.18
2018-01-01T02:35:28.416Z,8.10
2018-01-01T02:37:55.326Z,8.68
2018-01-01T02:40:23.016Z,7.93
2018-01-01T02:42:49.927Z,7.95
2018-01-01T02:45:17.616Z,9.10
2018-01-01T02:47:44.533Z,8.45
2018-01-01T02:50:12.244Z,8.75
2018-01-01T02:52:39.171Z,7.35
2018-01-01T02:55:06.102Z,8.95
2018-01-01T02:57:33.012Z,9.70
2018-01-01T02:59:59.924Z,8.48
2018-01-01T03:02:26.858Z,10.13
2018-01-01T03:04:53.768Z,9.38
2018-01-01T03:07:21.464Z,9.77
2018-01-01T03:09:48.376Z,10.63
2018-01-01T03:12:16.071Z,11.25
2018-01-01T03:14:42.984Z,9.93
2018-01-01T03:17:10.676Z,12.68
2018-01-01T03:19:37.583Z,12.10
2018-01-01T03:22:04.511Z,10.07
2018-01-01T03:24:31.424Z,7.78
2018-01-01T03:29:31.465Z,11.98
2018-01-01T03:31:58.393Z,11.82
2018-01-01T03:34:25.309Z,11.20
2018-01-01T03:36:52.229Z,11.15
2018-01-01T03:39:20.124Z,11.12
2018-01-01T03:41:47.052Z,10.05
2018-01-01T03:44:13.968Z,12.30
2018-01-01T03:46:40.903Z,12.25
2018-01-01T03:49:07.815Z,12.32
2018-01-01T03:51:35.512Z,11.75
2018-01-01T03:54:02.432Z,11.35
2018-01-01T03:56:29.372Z,10.77
2018-01-01T03:58:56.288Z,12.07
2018-01-01T04:01:23.216Z,12.25
2018-01-01T04:03:50.124Z,13.00
2018-01-01T04:06:17.060Z,12.35
2018-01-01T04:08:43.972Z,12.80
2018-01-01T04:11:10.915Z,12.93
2018-01-01T04:13:38.604Z,13.23
2018-01-01T04:16:05.548Z,14.02
2018-01-01T04:18:32.922Z,11.18
2018-01-01T04:20:59.846Z,13.93
2018-01-01T04:23:26.767Z,10.38
2018-01-01T04:25:54.444Z,12.25
2018-01-01T04:28:22.131Z,13.15
2018-01-01T04:30:49.039Z,12.88
2018-01-01T04:33:16.746Z,13.35
2018-01-01T04:35:43.662Z,12.85
2018-01-01T04:38:10.580Z,14.98
2018-01-01T04:40:37.546Z,14.05
2018-01-01T04:43:04.439Z,13.07
2018-01-01T04:45:31.351Z,14.13
2018-01-01T04:47:58.283Z,12.88
2018-01-01T04:50:25.199Z,14.27
2018-01-01T04:52:52.907Z,11.50
2018-01-01T04:55:19.821Z,12.73
2018-01-01T04:57:47.525Z,14.75
2018-01-01T05:00:14.445Z,12.95
2018-01-01T05:02:41.384Z,14.43
2018-01-01T05:05:08.298Z,14.35
2018-01-01T05:07:35.223Z,14.87
2018-01-01T05:10:02.138Z,13.95
2018-01-01T05:12:29.069Z,15.45
2018-01-01T05:14:55.987Z,13.48
2018-01-01T05:17:23.700Z,15.32
2018-01-01T05:19:50.616Z,13.77
2018-01-01T05:22:17.541Z,14.87
2018-01-01T05:24:45.238Z,15.57
2018-01-01T05:27:12.164Z,17.70
2018-01-01T05:29:39.105Z,14.70
2018-01-01T05:32:06.023Z,14.60
2018-01-01T05:34:32.951Z,16.10
2018-01-01T05:36:59.865Z,17.50
2018-01-01T05:39:26.797Z,15.27
2018-01-01T05:41:53.704Z,16.00
2018-01-01T05:44:20.631Z,15.05
2018-01-01T05:46:47.541Z,15.88
2018-01-01T05:49:14.468Z,17.30
2018-01-01T05:51:41.379Z,16.92
2018-01-01T05:54:08.307Z,16.67
2018-01-01T05:56:35.216Z,15.73
2018-01-01T05:59:02.138Z,12.68
2018-01-01T06:01:29.053Z,17.48
2018-01-01T06:03:56.951Z,16.00
2018-01-01T06:06:23.872Z,14.68
2018-01-01T06:08:50.792Z,11.70
2018-01-01T06:11:17.704Z,12.05
2018-01-01T06:13:44.644Z,12.68
2018-01-01T06:16:11.552Z,9.75
2018-01-01T06:18:39.223Z,12.07
2018-01-01T06:21:06.916Z,10.90
2018-01-01T06:23:33.826Z,9.75
2018-01-01T06:26:01.522Z,9.98
2018-01-01T06:28:28.440Z,7.05
2018-01-01T06:30:56.135Z,7.03
2018-01-01T06:33:23.039Z,6.97
2018-01-01T06:35:50.732Z,7.22
2018-01-01T06:38:17.640Z,9.70
2018-01-01T06:40:45.330Z,7.25
2018-01-01T06:43:12.240Z,7.03
2018-01-01T06:45:39.166Z,6.85
2018-01-01T06:48:06.072Z,6.72
2018-01-01T06:50:33.000Z,7.25
2018-01-01T06:52:59.905Z,8.48
2018-01-01T06:55:26.852Z,7.05
2018-01-01T06:57:53.760Z,7.07
2018-01-01T07:00:20.654Z,6.75
2018-01-01T07:02:48.343Z,5.40
2018-01-01T07:05:15.257Z,6.50
2018-01-01T07:07:42.155Z,4.72
2018-01-01T07:10:09.048Z,5.05
2018-01-01T07:12:36.734Z,5.05
2018-01-01T07:15:03.630Z,3.80
2018-01-01T07:17:30.552Z,2.55
2018-01-01T07:19:57.451Z,3.83
2018-01-01T07:22:25.131Z,2.65
2018-01-01T07:24:52.035Z,3.70
2018-01-01T07:27:18.943Z,2.17
2018-01-01T07:29:45.835Z,2.10
2018-01-01T07:32:13.508Z,2.20
2018-01-01T07:34:41.172Z,1.95
2018-01-01T07:37:08.848Z,1.20
2018-01-01T07:39:35.748Z,2.25
2018-01-01T07:42:02.665Z,2.10
2018-01-01T07:44:29.570Z,1.58
2018-01-01T07:46:56.528Z,1.90
2018-01-01T07:49:23.427Z,2.03
2018-01-01T07:51:50.354Z,1.55
2018-01-01T07:54:17.264Z,1.52
2018-01-01T07:56:44.172Z,1.60
2018-01-01T07:59:11.096Z,1.58
2018-01-01T08:01:38.000Z,1.92
2018-01-01T08:04:04.926Z,2.20
2018-01-01T08:06:31.824Z,1.48
2018-01-01T08:08:58.743Z,1.75
2018-01-01T08:11:25.639Z,1.10
2018-01-01T08:13:52.557Z,1.85
2018-01-01T08:16:19.461Z,1.95
2018-01-01T08:18:46.367Z,1.98
2018-01-01T08:21:14.032Z,1.98
2018-01-01T08:23:41.715Z,1.60
2018-01-01T08:26:09.550Z,1.80
2018-01-01T08:28:36.467Z,1.95
2018-01-01T08:31:03.363Z,1.98
2018-01-01T08:33:31.227Z,4.20
2018-01-01T08:35:58.893Z,1.77
2018-01-01T08:38:25.822Z,2.03
2018-01-01T08:40:53.488Z,2.35
2018-01-01T08:43:21.152Z,2.35
2018-01-01T08:45:48.832Z,1.52
2018-01-01T08:48:15.731Z,2.67
2018-01-01T08:50:42.657Z,2.28
2018-01-01T08:53:09.560Z,1.80
2018-01-01T08:55:36.490Z,4.25
2018-01-01T08:58:04.160Z,2.50
2018-01-01T09:00:31.080Z,2.08
2018-01-01T09:02:57.980Z,3.00
2018-01-01T09:05:24.920Z,2.72
2018-01-01T09:07:51.838Z,2.05
2018-01-01T09:10:18.740Z,1.87
2018-01-01T09:12:45.664Z,3.42
2018-01-01T09:15:12.572Z,2.62
2018-01-01T09:17:40.238Z,3.97
2018-01-01T09:20:07.147Z,3.60
2018-01-01T09:22:34.060Z,2.12
2018-01-01T09:25:00.975Z,3.50
2018-01-01T09:27:27.896Z,3.00
2018-01-01T09:29:55.582Z,3.95
2018-01-01T09:32:22.499Z,4.10
2018-01-01T09:34:50.180Z,3.35
2018-01-01T09:37:17.099Z,3.40
2018-01-01T09:39:44.768Z,3.70
2018-01-01T09:42:12.445Z,4.32
2018-01-01T09:44:39.352Z,3.10
2018-01-01T09:47:06.271Z,4.45
2018-01-01T09:49:33.173Z,3.47
2018-01-01T09:52:00.084Z,4.07
2018-01-01T09:54:26.989Z,3.35
2018-01-01T09:56:53.904Z,3.00
2018-01-01T09:59:20.805Z,2.97
2018-01-01T10:01:47.748Z,3.20
2018-01-01T10:04:14.656Z,3.28
2018-01-01T10:06:41.546Z,5.07
2018-01-01T10:09:08.454Z,2.53
2018-01-01T10:11:35.346Z,2.50
2018-01-01T10:14:03.038Z,3.70
2018-01-01T10:16:29.947Z,3.08
2018-01-01T10:18:56.872Z,3.12
2018-01-01T10:21:23.785Z,3.47
2018-01-01T10:23:50.708Z,3.05
2018-01-01T10:26:17.616Z,2.55
2018-01-01T10:28:44.535Z,3.85
2018-01-01T10:31:11.440Z,3.37
2018-01-01T10:33:38.360Z,3.42
2018-01-01T10:36:06.040Z,3.30
2018-01-01T10:38:32.973Z,2.95
2018-01-01T10:41:00.640Z,2.95
2018-01-01T10:43:28.328Z,2.87
2018-01-01T10:45:55.232Z,3.60
2018-01-01T10:48:22.919Z,2.42
2018-01-01T10:50:49.824Z,2.45
2018-01-01T10:53:16.752Z,3.75
2018-01-01T10:55:43.655Z,3.37
2018-01-01T10:58:10.580Z,2.47
2018-01-01T11:00:37.489Z,2.50
2018-01-01T11:03:04.427Z,2.30
2018-01-01T11:05:31.323Z,3.15
2018-01-01T11:07:58.248Z,1.60
2018-01-01T11:10:25.160Z,1.60
2018-01-01T11:12:52.075Z,2.40
2018-01-01T11:15:18.978Z,1.92
2018-01-01T11:17:45.907Z,2.22
2018-01-01T11:20:13.731Z,1.70
2018-01-01T11:22:41.417Z,2.20
2018-01-01T11:25:08.342Z,2.72
2018-01-01T11:27:35.260Z,2.17
2018-01-01T11:30:02.190Z,2.12
2018-01-01T11:32:29.145Z,2.33
2018-01-01T11:34:56.116Z,2.53
2018-01-01T11:37:23.783Z,1.92
2018-01-01T11:39:51.490Z,2.28
2018-01-01T11:42:19.163Z,1.77
2018-01-01T11:44:46.089Z,2.05
2018-01-01T11:47:12.993Z,1.10
2018-01-01T11:49:39.940Z,2.87
2018-01-01T11:52:06.864Z,1.95
2018-01-01T11:54:33.790Z,2.70
2018-01-01T11:57:00.725Z,2.87
2018-01-01T11:59:27.644Z,3.35
2018-01-01T12:01:54.556Z,4.28
2018-01-01T12:04:22.239Z,2.80
2018-01-01T12:06:49.152Z,1.30
2018-01-01T12:09:16.905Z,2.85
2018-01-01T12:11:43.788Z,2.47
2018-01-01T12:14:21.449Z,3.15
2018-01-01T12:16:48.351Z,3.08
2018-01-01T12:19:15.268Z,2.72
2018-01-01T12:21:42.176Z,2.35
2018-01-01T12:24:09.108Z,1.87
2018-01-01T12:26:36.780Z,2.70
2018-01-01T12:29:03.724Z,2.95
2018-01-01T12:31:30.619Z,1.83
2018-01-01T12:33:57.535Z,3.45
2018-01-01T12:36:24.470Z,3.50
2018-01-01T12:38:51.400Z,3.10
2018-01-01T12:41:18.330Z,3.05
2018-01-01T12:43:45.243Z,2.75
2018-01-01T12:46:12.173Z,3.03
2018-01-01T12:48:39.105Z,2.62
2018-01-01T12:51:06.047Z,3.30
2018-01-01T12:53:32.957Z,3.12
2018-01-01T12:55:59.879Z,2.70
2018-01-01T12:58:26.795Z,2.22
2018-01-01T13:00:53.720Z,3.12
2018-01-01T13:03:21.411Z,2.45
2018-01-01T13:05:49.254Z,3.58
2018-01-01T13:08:16.249Z,2.75
2018-01-01T13:10:43.178Z,2.05
2018-01-01T13:13:10.087Z,1.92
2018-01-01T13:15:37.003Z,1.80
2018-01-01T13:18:03.923Z,3.00
2018-01-01T13:20:30.845Z,2.60
2018-01-01T13:22:57.766Z,2.42
2018-01-01T13:25:24.732Z,3.20
2018-01-01T13:27:51.631Z,2.55
2018-01-01T13:30:19.325Z,1.75
2018-01-01T13:32:46.244Z,2.30
2018-01-01T13:35:13.166Z,1.85
2018-01-01T13:37:42.097Z,2.80
2018-01-01T13:40:09.047Z,3.00
2018-01-01T13:42:35.960Z,3.05
2018-01-01T13:45:02.947Z,2.75
2018-01-01T13:47:29.881Z,2.35
2018-01-01T13:49:56.823Z,2.65
2018-01-01T13:52:27.812Z,3.80
2018-01-01T13:54:54.763Z,2.85
2018-01-01T13:57:21.692Z,2.40
2018-01-01T13:59:54.363Z,3.47
2018-01-01T14:02:21.288Z,3.15
2018-01-01T14:04:48.241Z,2.70
2018-01-01T14:07:16.845Z,3.00
2018-01-01T14:09:43.756Z,3.25
2018-01-01T14:12:10.690Z,4.47
2018-01-01T14:14:37.598Z,2.75
2018-01-01T14:17:04.548Z,3.45
2018-01-01T14:19:31.528Z,4.37
2018-01-01T14:21:59.216Z,3.20
2018-01-01T14:24:26.119Z,3.55
2018-01-01T14:26:53.822Z,2.67
2018-01-01T14:29:20.728Z,4.50
2018-01-01T14:31:48.434Z,3.08
2018-01-01T14:34:15.376Z,3.58
2018-01-01T14:36:42.289Z,4.05
2018-01-01T14:39:09.212Z,4.35
2018-01-01T14:41:36.136Z,4.10
2018-01-01T14:44:03.081Z,3.67
2018-01-01T14:46:30.008Z,3.83
2018-01-01T14:48:56.962Z,5.43
2018-01-01T14:51:23.898Z,4.72
2018-01-01T14:53:50.844Z,4.62
2018-01-01T14:56:17.778Z,6.65
2018-01-01T14:58:44.711Z,4.50
2018-01-01T15:01:11.622Z,5.47
2018-01-01T15:03:39.468Z,5.07
2018-01-01T15:06:06.415Z,5.00
2018-01-01T15:08:33.316Z,5.07
2018-01-01T15:11:00.220Z,4.60
2018-01-01T15:13:29.824Z,3.92
2018-01-01T15:15:57.496Z,3.60
2018-01-01T15:18:25.197Z,3.80
2018-01-01T15:20:52.105Z,5.03
2018-01-01T15:23:19.040Z,4.50
2018-01-01T15:25:46.716Z,6.05
2018-01-01T15:28:13.632Z,4.30
2018-01-01T15:30:40.542Z,5.40
2018-01-01T15:33:07.473Z,4.53
2018-01-01T15:35:34.384Z,4.43
2018-01-01T15:38:02.100Z,3.65
2018-01-01T15:40:29.018Z,4.20
2018-01-01T15:42:55.968Z,2.90
2018-01-01T15:45:22.869Z,3.17
2018-01-01T15:47:49.804Z,4.05
2018-01-01T15:50:16.726Z,4.50
2018-01-01T15:52:43.656Z,4.55
2018-01-01T15:55:10.560Z,3.75
2018-01-01T15:57:38.251Z,4.35
2018-01-01T16:00:05.151Z,3.90
2018-01-01T16:02:32.069Z,4.50
2018-01-01T16:04:58.972Z,3.97
2018-01-01T16:07:25.889Z,3.72
2018-01-01T16:09:52.796Z,3.95
2018-01-01T16:12:19.716Z,4.53
2018-01-01T16:14:46.625Z,4.55
2018-01-01T16:17:14.317Z,6.87
2018-01-01T16:19:41.221Z,3.80
2018-01-01T16:22:08.143Z,3.67
2018-01-01T16:24:35.044Z,3.87
2018-01-01T16:27:01.973Z,4.15
2018-01-01T16:29:29.665Z,4.25
2018-01-01T16:31:56.617Z,4.70
2018-01-01T16:34:23.525Z,4.90
2018-01-01T16:36:51.218Z,5.57
2018-01-01T16:39:18.120Z,4.00
2018-01-01T16:41:45.039Z,4.20
2018-01-01T16:44:11.948Z,4.50
2018-01-01T16:46:38.896Z,4.12
2018-01-01T16:49:05.819Z,3.90
2018-01-01T16:51:32.746Z,3.47
2018-01-01T16:54:00.419Z,4.30
2018-01-01T16:56:28.121Z,5.05
2018-01-01T16:58:56.030Z,3.60
2018-01-01T17:01:22.953Z,3.35
2018-01-01T17:03:50.663Z,3.83
2018-01-01T17:06:17.571Z,4.10
2018-01-01T17:08:44.492Z,4.45
2018-01-01T17:11:11.415Z,3.65
2018-01-01T17:13:38.389Z,2.80
2018-01-01T17:16:05.342Z,4.30
2018-01-01T17:18:32.265Z,3.90
2018-01-01T17:20:59.204Z,3.33
2018-01-01T17:23:26.128Z,4.10
2018-01-01T17:25:53.029Z,3.50
2018-01-01T17:28:19.952Z,3.80
2018-01-01T17:30:46.885Z,3.85
2018-01-01T17:33:13.829Z,2.83
2018-01-01T17:35:42.668Z,4.97
2018-01-01T17:38:11.368Z,4.28
2018-01-01T17:40:38.292Z,3.53
2018-01-01T17:43:05.252Z,4.35
2018-01-01T17:45:32.171Z,5.55
2018-01-01T17:47:59.111Z,5.57
2018-01-01T17:50:26.018Z,4.60
2018-01-01T17:52:52.927Z,6.25
2018-01-01T17:55:20.627Z,6.68
2018-01-01T17:57:47.539Z,4.30
2018-01-01T18:00:14.472Z,3.60
2018-01-01T18:02:42.136Z,3.75
2018-01-01T18:05:11.757Z,5.10
2018-01-01T18:07:38.665Z,4.85
2018-01-01T18:10:05.615Z,5.12
2018-01-01T18:12:32.523Z,3.87
2018-01-01T18:14:59.448Z,4.62
2018-01-01T18:17:26.360Z,4.37
2018-01-01T18:19:54.044Z,5.20
2018-01-01T18:22:20.964Z,5.03
2018-01-01T18:24:48.649Z,8.25
2018-01-01T18:27:15.576Z,7.68
2018-01-01T18:29:43.284Z,5.50
2018-01-01T18:32:10.249Z,5.45
2018-01-01T18:34:37.202Z,5.28
2018-01-01T18:37:04.130Z,4.95
2018-01-01T18:39:31.051Z,4.18
2018-01-01T18:41:57.985Z,4.78
2018-01-01T18:44:24.957Z,5.15
2018-01-01T18:46:51.869Z,5.35
2018-01-01T18:49:19.708Z,4.20
2018-01-01T18:51:46.668Z,4.90
2018-01-01T18:54:13.577Z,3.75
2018-01-01T18:56:40.505Z,4.65
2018-01-01T18:59:07.414Z,4.40
2018-01-01T19:01:34.355Z,5.43
2018-01-01T19:04:01.265Z,4.53
2018-01-01T19:06:28.964Z,6.37
2018-01-01T19:08:55.853Z,7.22
2018-01-01T19:11:22.760Z,4.80
2018-01-01T19:13:49.648Z,5.47
2018-01-01T19:16:16.583Z,4.50
2018-01-01T19:18:43.504Z,4.45
2018-01-01T19:21:10.430Z,5.00
2018-01-01T19:23:37.374Z,3.58
2018-01-01T19:26:04.300Z,4.95
2018-01-01T19:28:31.979Z,5.43
2018-01-01T19:30:58.924Z,5.78
2018-01-01T19:33:26.689Z,5.00
2018-01-01T19:35:53.631Z,4.45
2018-01-01T19:38:20.586Z,4.70
2018-01-01T19:40:48.623Z,4.60
2018-01-01T19:43:16.312Z,4.53
2018-01-01T19:45:43.223Z,4.03
2018-01-01T19:48:10.140Z,5.00
2018-01-01T19:50:37.091Z,5.60
2018-01-01T19:53:05.004Z,4.07
2018-01-01T19:55:31.911Z,5.70
2018-01-01T19:57:58.859Z,5.47
2018-01-01T20:02:59.117Z,7.78
2018-01-01T20:05:26.054Z,11.88
2018-01-01T20:07:53.031Z,6.10
2018-01-01T20:10:20.741Z,5.85
2018-01-01T20:12:47.682Z,7.32
2018-01-01T20:15:14.595Z,7.70
2018-01-01T20:17:42.296Z,11.12
2018-01-01T20:20:09.213Z,4.25
2018-01-01T20:22:36.136Z,6.32
2018-01-01T20:25:03.062Z,7.62
2018-01-01T20:27:30.007Z,6.68
2018-01-01T20:29:56.932Z,5.87
2018-01-01T20:32:23.859Z,5.50
2018-01-01T20:34:50.811Z,4.75
2018-01-01T20:37:17.717Z,5.55
2018-01-01T20:39:45.408Z,4.57
2018-01-01T20:42:12.324Z,5.50
2018-01-01T20:44:40.080Z,5.00
2018-01-01T20:47:07.754Z,5.60
2018-01-01T20:49:34.707Z,5.53
2018-01-01T20:52:01.617Z,5.97
2018-01-01T20:54:29.325Z,6.60
2018-01-01T20:56:56.232Z,6.18
2018-01-01T20:59:23.945Z,5.05
2018-01-01T21:01:51.868Z,6.28
2018-01-01T21:04:19.572Z,5.95
2018-01-01T21:06:46.484Z,5.72
2018-01-01T21:09:14.188Z,7.60
2018-01-01T21:11:41.105Z,6.15
2018-01-01T21:14:08.044Z,6.10
2018-01-01T21:16:34.962Z,6.43
2018-01-01T21:19:06.532Z,5.43
2018-01-01T21:21:34.214Z,5.43
2018-01-01T21:24:01.165Z,6.93
2018-01-01T21:26:28.079Z,6.40
2018-01-01T21:28:55.794Z,5.20
2018-01-01T21:31:22.715Z,5.95
2018-01-01T21:33:49.624Z,6.68
2018-01-01T21:36:17.313Z,6.40
2018-01-01T21:38:44.229Z,7.22
2018-01-01T21:41:11.923Z,6.60
2018-01-01T21:43:38.846Z,6.68
2018-01-01T21:46:05.781Z,7.45
2018-01-01T21:48:33.464Z,8.15
2018-01-01T21:51:00.384Z,7.35
2018-01-01T21:53:28.052Z,7.07
2018-01-01T21:55:55.736Z,7.40
2018-01-01T21:58:22.801Z,7.40
2018-01-01T22:00:49.735Z,7.40
2018-01-01T22:03:16.699Z,7.55
2018-01-01T22:05:43.768Z,7.70
2018-01-01T22:08:10.705Z,8.35
2018-01-01T22:10:37.625Z,7.75
2018-01-01T22:13:04.576Z,8.25
2018-01-01T22:15:31.550Z,7.78
2018-01-01T22:17:58.463Z,8.45
2018-01-01T22:20:25.372Z,8.43
2018-01-01T22:22:53.067Z,9.50
2018-01-01T22:25:19.977Z,8.90
2018-01-01T22:27:47.668Z,7.95
2018-01-01T22:30:14.696Z,9.45
2018-01-01T22:32:41.634Z,10.32
2018-01-01T22:35:12.116Z,8.60
2018-01-01T22:37:39.760Z,9.00
2018-01-01T22:40:06.677Z,9.50
2018-01-01T22:42:33.631Z,9.85
2018-01-01T22:45:00.671Z,9.30
2018-01-01T22:47:29.804Z,9.05
2018-01-01T22:49:56.719Z,10.10
2018-01-01T22:52:23.648Z,9.55
2018-01-01T22:54:50.561Z,9.73
2018-01-01T22:57:17.485Z,9.55
2018-01-01T22:59:45.184Z,9.48
2018-01-01T23:02:12.985Z,9.73
2018-01-01T23:04:39.919Z,10.25
2018-01-01T23:07:06.853Z,10.32
2018-01-01T23:09:33.801Z,8.82
2018-01-01T23:12:00.720Z,11.55
2018-01-01T23:14:28.414Z,9.40
2018-01-01T23:16:56.269Z,10.35
2018-01-01T23:19:23.188Z,9.82
2018-01-01T23:21:50.906Z,10.05
2018-01-01T23:24:17.822Z,8.60
2018-01-01T23:26:44.781Z,10.60
2018-01-01T23:29:11.698Z,8.85
2018-01-01T23:31:39.396Z,9.93
2018-01-01T23:34:06.343Z,9.75
2018-01-01T23:36:33.296Z,10.80
2018-01-01T23:39:00.262Z,9.82
2018-01-01T23:41:27.192Z,10.85
2018-01-01T23:43:54.107Z,10.57
2018-01-01T23:46:21.051Z,9.48
2018-01-01T23:48:47.965Z,9.77
2018-01-01T23:51:15.683Z,9.43
2018-01-01T23:53:42.605Z,10.80
2018-01-01T23:56:09.534Z,10.73
2018-01-01T23:58:36.602Z,9.98
